Pagrindinis puslapis
METAR-TAF:

METAR-TAF

Oro uostai :

Valensija, Ispanija

platuma: 39-37-26N, ilguma: 0-28-26W, Aukštis: 127 m

Dabartinis oras

Ataskaita buvo paskelbta 16 minutes, ne 23:00 UTC
Vėjas 1 kt nuo kintamojo kryptimis
Temperatūra 8°C
Drėgmė 93%
Slėgis 1013 hPa
Matomumas: 8000 m
Mažai debesys ne aukštis 2000 ft
Išsisklaidę debesys ne aukštis 2900 ft

METAR: LEBT 302300Z AUTO VRB01KT 8000 FEW020 SCT029 08/07 Q1013

Laikas: 01:16 (23:16 UTC)


TAF: trūkstamas

Orai ataskaitas ir orų prognozės (METAR, TAF).

turimą stotys yra geltonos ir raudonos taškus žemėlapyje.

Perkelti pele per norėdami pamatyti stoties vardą.

Tada spustelėkite, norėdami matyti oro stebėjimo ir prognozės.

Norėdami pakeisti žemėlapį: spustelėkite ant žalios mygtukų su juodo kryžiaus žemyn,; žalią mygtuką su brūkšneliu, jei norite nutolinti; arba žalių rodyklių gretimoms žemėlapius.


METAR-TAF: